Destinations Nantes Atlantique Airport

Nantes Atlantique Airport (LFRS / NTE)

Flights to Nantes Atlantique Airport

Flight number From ETE Dispatch
SPY-4312 EIDW Dublin Airport 01:45
SPY-620 EHGG Groningen Airport Eelde 01:50

Flights from Nantes Atlantique Airport

Flight number To ETE Dispatch
SPY-4313 EIDW Dublin Airport 01:50
SPY-621 EHGG Groningen Airport Eelde 01:50
About

Nantes Atlantique Airport facts

Nantes Atlantique Airport is located in Nantes at an elevation of 27.4 meters or 90 feet.

Currently, Speedy Airlines serves 4 flights to and from Nantes Atlantique Airport.

Detailed airport info

Route map

Weather

Current weather

METAR

METAR

Metar data retrieved Sunday, 21 July 2024 at 18:25 UTC

LFRS 211800Z AUTO 27011KT 9999 FEW028 21/15 Q1017 NOSIG
Wind Temperature
11 kt 21c